Time;durP1;ratioP1;P1;durP2;ratioP2;P2;SDS_P1;SDS_P2;PMS_P1;PMS_P2;Temp;Humidity;BMP_temperature;BMP_pressure;BME280_temperature;BME280_humidity;BME280_pressure;Samples;Min_cycle;Max_cycle;Signal;HPM_P1;HPM_P2
2023/05/06 00:01:35;;;;;;;4.50;2.83;;;;;;;17.04;93.21;98743.31;4990830;28;103301;-79
2023/05/06 00:04:03;;;;;;;7.45;3.65;;;;;;;16.92;93.00;98745.34;5002096;28;103719;-79
2023/05/06 00:06:31;;;;;;;3.63;3.05;;;;;;;16.86;94.06;98739.75;5000960;28;102817;-79
2023/05/06 00:09:00;;;;;;;4.28;2.80;;;;;;;16.92;93.05;98747.16;5007309;27;102865;-79
2023/05/06 00:11:28;;;;;;;3.83;2.88;;;;;;;16.80;93.23;98744.72;5009187;28;103307;-79
2023/05/06 00:13:56;;;;;;;3.10;2.80;;;;;;;16.91;92.21;98745.47;4990279;28;103370;-78
2023/05/06 00:16:24;;;;;;;3.13;2.10;;;;;;;16.86;91.01;98742.44;5006237;28;102875;-78
2023/05/06 00:18:52;;;;;;;3.92;2.72;;;;;;;16.80;90.73;98741.19;5010541;28;102773;-79
2023/05/06 00:21:20;;;;;;;2.42;2.22;;;;;;;16.65;92.32;98740.84;5009282;28;103470;-79
2023/05/06 00:23:48;;;;;;;2.83;2.55;;;;;;;16.51;93.12;98740.44;4993861;28;109243;-78
2023/05/06 00:26:17;;;;;;;2.63;2.42;;;;;;;16.39;93.62;98741.66;5004399;28;103596;-79
2023/05/06 00:28:45;;;;;;;2.50;2.00;;;;;;;16.61;93.68;98736.81;4988749;28;102824;-78
2023/05/06 00:31:12;;;;;;;2.15;1.98;;;;;;;16.76;92.10;98729.97;4985420;28;111614;-79
2023/05/06 00:33:41;;;;;;;2.53;2.33;;;;;;;16.46;92.33;98738.25;5000323;28;103216;-77
2023/05/06 00:36:09;;;;;;;2.58;2.35;;;;;;;16.48;93.24;98741.59;5005542;28;102663;-78
2023/05/06 00:38:37;;;;;;;2.92;2.15;;;;;;;16.53;93.11;98733.16;4971239;28;102865;-77
2023/05/06 00:41:05;;;;;;;3.10;2.28;;;;;;;16.43;93.21;98738.53;4990631;28;103342;-78
2023/05/06 00:43:34;;;;;;;2.35;2.13;;;;;;;16.40;93.35;98744.16;4997510;28;108221;-78
2023/05/06 00:46:03;;;;;;;3.05;2.58;;;;;;;16.50;92.74;98750.31;5002508;28;102725;-78
2023/05/06 00:48:31;;;;;;;2.67;2.15;;;;;;;16.53;92.27;98735.84;4987734;28;102701;-78
2023/05/06 00:50:59;;;;;;;3.50;2.50;;;;;;;16.52;92.21;98737.66;4977246;28;105232;-78
2023/05/06 00:53:27;;;;;;;2.50;2.30;;;;;;;16.56;92.11;98732.91;4984611;28;108317;-78
2023/05/06 00:55:57;;;;;;;4.65;3.00;;;;;;;16.21;92.42;98736.22;4991239;28;102708;-78
2023/05/06 00:58:25;;;;;;;2.25;2.05;;;;;;;16.42;93.50;98734.16;5009248;28;102987;-78
2023/05/06 01:00:55;;;;;;;4.82;2.33;;;;;;;16.11;93.37;98735.44;5004296;28;111967;-78
2023/05/06 01:03:23;;;;;;;3.03;2.40;;;;;;;16.11;94.62;98727.44;4995866;28;103732;-78
2023/05/06 01:06:11;;;;;;;4.15;2.30;;;;;;;15.95;94.21;98732.50;4993481;28;102803;-78
2023/05/06 01:08:47;;;;;;;2.10;1.90;;;;;;;16.29;93.58;98739.00;4994164;28;102858;-78
2023/05/06 01:11:20;;;;;;;3.28;2.45;;;;;;;15.77;94.62;98732.41;4972865;28;114202;-78
2023/05/06 01:13:56;;;;;;;3.13;1.88;;;;;;;16.21;93.45;98736.22;4988374;28;105919;-78
2023/05/06 01:16:29;;;;;;;2.55;2.35;;;;;;;16.30;91.76;98731.84;4997024;28;102832;-78
2023/05/06 01:18:59;;;;;;;3.78;2.30;;;;;;;16.14;93.18;98730.63;4987372;28;105943;-78
2023/05/06 01:21:33;;;;;;;2.55;2.25;;;;;;;16.15;92.52;98728.81;5002873;28;107864;-79
2023/05/06 01:24:03;;;;;;;2.40;2.20;;;;;;;16.16;92.93;98730.50;5005434;28;103290;-78
2023/05/06 01:26:30;;;;;;;3.30;2.10;;;;;;;16.09;93.79;98729.38;4988822;28;102843;-78
2023/05/06 01:29:00;;;;;;;3.70;2.50;;;;;;;16.06;93.02;98727.00;4995493;28;102716;-78
2023/05/06 01:31:40;;;;;;;4.07;2.30;;;;;;;15.98;92.78;98732.22;5002912;28;103196;-78
2023/05/06 01:34:17;;;;;;;3.88;2.72;;;;;;;15.83;94.29;98721.16;4988277;28;103150;-78
2023/05/06 01:36:58;;;;;;;2.50;2.30;;;;;;;15.96;93.60;98726.19;4985488;28;102778;-79
2023/05/06 01:39:31;;;;;;;3.47;2.60;;;;;;;16.09;92.91;98727.56;4984046;28;102764;-78
2023/05/06 01:42:01;;;;;;;3.83;1.80;;;;;;;16.22;92.01;98735.25;4993992;28;116599;-78
2023/05/06 01:44:33;;;;;;;2.50;2.30;;;;;;;16.37;90.66;98732.94;4995617;28;103298;-79
2023/05/06 01:47:02;;;;;;;1.73;1.60;;;;;;;16.41;90.58;98737.00;5005012;28;102873;-78
2023/05/06 01:49:30;;;;;;;4.13;2.40;;;;;;;16.44;90.46;98742.03;4975756;28;102737;-78
2023/05/06 01:51:58;;;;;;;2.63;1.70;;;;;;;16.38;91.09;98740.78;5002422;28;103487;-78
2023/05/06 01:54:25;;;;;;;2.80;2.20;;;;;;;16.35;90.65;98745.56;5001996;28;102707;-78
2023/05/06 01:56:55;;;;;;;3.35;2.30;;;;;;;16.17;91.56;98737.50;4990528;28;102808;-79
2023/05/06 01:59:25;;;;;;;2.72;2.50;;;;;;;16.30;90.67;98746.03;4987803;28;102679;-79
2023/05/06 02:01:58;;;;;;;3.83;2.35;;;;;;;16.20;91.04;98731.88;4984466;28;103531;-79
2023/05/06 02:04:26;;;;;;;2.45;1.55;;;;;;;16.29;91.88;98735.50;5001791;28;104009;-78
2023/05/06 02:06:54;;;;;;;2.40;2.20;;;;;;;16.31;90.88;98730.88;5005014;28;102854;-79
2023/05/06 02:09:21;;;;;;;3.58;2.25;;;;;;;16.34;91.01;98734.06;4987275;28;102787;-78
2023/05/06 02:11:58;;;;;;;2.70;2.15;;;;;;;16.27;91.22;98727.66;4989861;28;103977;-79
2023/05/06 02:14:26;;;;;;;3.53;2.63;;;;;;;16.17;91.17;98732.16;4984288;28;103263;-78
2023/05/06 02:16:55;;;;;;;4.45;2.97;;;;;;;16.30;91.34;98726.53;4971383;28;102744;-79
2023/05/06 02:19:22;;;;;;;4.57;2.90;;;;;;;16.13;91.79;98730.78;5004649;28;102802;-79
2023/05/06 02:21:52;;;;;;;2.40;2.20;;;;;;;16.23;91.07;98732.44;4986548;28;108207;-79
2023/05/06 02:24:20;;;;;;;2.40;2.20;;;;;;;16.31;91.28;98739.69;5005169;28;103250;-79
2023/05/06 02:26:48;;;;;;;6.28;2.78;;;;;;;16.33;90.00;98732.41;4990490;28;102781;-79
2023/05/06 02:29:17;;;;;;;3.03;2.22;;;;;;;16.39;90.05;98729.16;5003397;28;104133;-79
2023/05/06 02:31:45;;;;;;;2.20;2.10;;;;;;;16.39;90.03;98725.66;5004060;28;103348;-79
2023/05/06 02:34:16;;;;;;;3.50;2.70;;;;;;;16.48;89.35;98725.59;4995625;28;103234;-79
2023/05/06 02:36:44;;;;;;;6.35;2.67;;;;;;;16.37;89.91;98714.25;5009776;28;102754;-79
2023/05/06 02:39:11;;;;;;;3.85;2.80;;;;;;;16.22;91.01;98720.06;4991824;28;102849;-79
2023/05/06 02:41:39;;;;;;;3.22;2.33;;;;;;;16.30;90.82;98727.38;4975410;28;105851;-79
2023/05/06 02:44:07;;;;;;;3.30;3.00;;;;;;;16.26;91.06;98725.97;4992437;28;106160;-79
2023/05/06 02:46:37;;;;;;;3.65;3.10;;;;;;;16.26;90.39;98723.28;4987616;28;103499;-79
2023/05/06 02:49:05;;;;;;;3.17;2.88;;;;;;;16.21;90.60;98721.09;5002931;28;103362;-79
2023/05/06 02:51:33;;;;;;;3.45;2.53;;;;;;;16.15;91.76;98724.31;5003959;28;103708;-78
2023/05/06 02:54:01;;;;;;;2.42;2.22;;;;;;;16.27;91.51;98718.81;5001374;28;103583;-79
2023/05/06 02:56:30;;;;;;;2.85;2.50;;;;;;;16.18;91.82;98717.84;4992530;28;102829;-78
2023/05/06 02:58:57;;;;;;;4.22;3.33;;;;;;;16.16;91.30;98720.69;5003446;28;102727;-79
2023/05/06 03:01:25;;;;;;;3.75;2.78;;;;;;;16.29;90.58;98720.34;4975963;28;107203;-78
2023/05/06 03:03:55;;;;;;;3.50;2.75;;;;;;;16.32;90.27;98717.38;4995439;28;103446;-79
2023/05/06 03:06:23;;;;;;;4.05;2.92;;;;;;;16.34;89.66;98723.41;4991826;28;102722;-79
2023/05/06 03:08:50;;;;;;;5.72;3.40;;;;;;;16.21;90.01;98723.75;4997188;28;103015;-79
2023/05/06 03:11:18;;;;;;;4.65;3.15;;;;;;;16.32;89.28;98729.88;4996792;28;105025;-79
2023/05/06 03:13:46;;;;;;;4.60;3.10;;;;;;;16.43;88.61;98722.53;5007521;28;103524;-79
2023/05/06 03:16:14;;;;;;;5.78;3.83;;;;;;;16.26;88.97;98728.63;5002269;28;103444;-79
2023/05/06 03:18:46;;;;;;;4.53;4.00;;;;;;;16.30;89.88;98723.84;4991485;28;103059;-78
2023/05/06 03:21:16;;;;;;;4.30;3.90;;;;;;;16.28;89.58;98723.97;4985243;28;103392;-79
2023/05/06 03:23:46;;;;;;;4.28;3.85;;;;;;;16.12;89.75;98721.09;4979970;28;106628;-79
2023/05/06 03:26:15;;;;;;;3.92;3.60;;;;;;;16.28;89.66;98718.66;4989815;28;102660;-78
2023/05/06 03:28:44;;;;;;;4.30;3.90;;;;;;;16.10;91.15;98723.06;4970385;28;103422;-78
2023/05/06 03:31:14;;;;;;;4.35;3.92;;;;;;;15.97;91.10;98720.72;4989421;28;103255;-78
2023/05/06 03:33:42;;;;;;;5.15;4.50;;;;;;;15.66;92.67;98727.25;4988603;28;103377;-78
2023/05/06 03:36:12;;;;;;;4.22;3.83;;;;;;;15.85;93.26;98729.03;4990182;28;102679;-78
2023/05/06 03:38:44;;;;;;;3.78;3.47;;;;;;;16.02;91.98;98717.63;4985136;28;102874;-79
2023/05/06 03:41:12;;;;;;;5.40;4.65;;;;;;;15.80;91.81;98725.97;4984423;28;103466;-78
2023/05/06 03:43:41;;;;;;;5.28;4.00;;;;;;;16.03;91.36;98719.28;4991204;28;103683;-79
2023/05/06 03:46:10;;;;;;;3.50;3.20;;;;;;;16.16;89.99;98703.84;5004712;28;103670;-69
2023/05/06 03:48:39;;;;;;;3.90;3.58;;;;;;;15.74;91.84;98713.22;4994416;28;103010;-69
2023/05/06 03:51:11;;;;;;;4.45;3.40;;;;;;;15.96;91.53;98707.53;4987732;28;109516;-69
2023/05/06 03:53:39;;;;;;;8.50;3.97;;;;;;;15.70;91.77;98712.63;5001039;28;103182;-68
2023/05/06 03:56:09;;;;;;;4.80;4.15;;;;;;;15.55;93.13;98703.44;4987612;28;103009;-69
2023/05/06 03:58:38;;;;;;;4.43;4.03;;;;;;;15.06;93.98;98705.22;5008595;28;102661;-70
2023/05/06 04:01:08;;;;;;;4.30;3.90;;;;;;;15.08;96.30;98710.38;4997658;28;109105;-69
2023/05/06 04:03:36;;;;;;;3.38;3.17;;;;;;;15.14;96.18;98703.66;4995834;28;103250;-69
2023/05/06 04:06:05;;;;;;;4.90;4.40;;;;;;;14.76;96.78;98701.81;4996763;28;102814;-69
2023/05/06 04:08:35;;;;;;;6.53;4.28;;;;;;;14.79;97.55;98709.53;5010347;28;102565;-70
2023/05/06 04:11:04;;;;;;;5.30;4.63;;;;;;;14.75;96.06;98713.41;5002656;28;103279;-69
2023/05/06 04:13:34;;;;;;;5.00;4.50;;;;;;;14.78;96.24;98714.00;4997223;28;103277;-69
2023/05/06 04:16:08;;;;;;;4.22;3.85;;;;;;;14.96;95.00;98714.97;4984666;28;102753;-69
2023/05/06 04:18:40;;;;;;;4.80;4.33;;;;;;;14.90;94.07;98712.06;4968149;28;102972;-69
2023/05/06 04:21:11;;;;;;;5.68;5.07;;;;;;;14.67;94.80;98710.59;5003862;28;112479;-69
2023/05/06 04:23:43;;;;;;;3.88;3.58;;;;;;;14.77;95.54;98709.63;5001112;28;103308;-69
2023/05/06 04:26:14;;;;;;;5.20;4.53;;;;;;;14.91;94.49;98714.56;4999396;28;103965;-69
2023/05/06 04:28:45;;;;;;;4.38;4.03;;;;;;;14.90;93.74;98717.38;4993565;28;102680;-69
2023/05/06 04:31:14;;;;;;;4.97;4.30;;;;;;;14.93;93.55;98722.41;4981118;28;109492;-69
2023/05/06 04:33:45;;;;;;;4.03;3.73;;;;;;;14.83;93.69;98727.72;4985632;28;103547;-70
2023/05/06 04:36:19;;;;;;;5.17;4.70;;;;;;;14.68;94.96;98733.56;4988162;28;103170;-70
2023/05/06 04:39:10;;;;;;;5.50;4.90;;;;;;;14.54;97.00;98732.09;4987948;28;102824;-73
2023/05/06 04:41:41;;;;;;;6.47;4.70;;;;;;;14.62;96.15;98728.78;4995701;28;103287;-74
2023/05/06 04:44:13;;;;;;;5.38;4.88;;;;;;;14.70;95.66;98734.25;5000302;28;103441;-74
2023/05/06 04:46:45;;;;;;;5.53;5.03;;;;;;;14.81;95.11;98734.16;4996834;28;102673;-74
2023/05/06 04:49:13;;;;;;;4.17;3.80;;;;;;;14.92;94.79;98736.69;4986135;28;103167;-70
2023/05/06 04:51:41;;;;;;;5.20;4.60;;;;;;;15.07;93.34;98738.00;4999546;28;103349;-69
2023/05/06 04:54:10;;;;;;;4.10;3.70;;;;;;;15.20;92.74;98745.69;4980655;28;105916;-69
2023/05/06 04:56:40;;;;;;;3.53;2.93;;;;;;;15.32;92.13;98745.44;4994429;28;102622;-69
2023/05/06 04:59:10;;;;;;;3.43;3.10;;;;;;;15.42;91.34;98751.59;4985132;28;102845;-69
2023/05/06 05:01:41;;;;;;;4.17;2.90;;;;;;;15.49;90.74;98747.44;5005543;28;103469;-69
2023/05/06 05:04:10;;;;;;;4.47;3.30;;;;;;;15.54;90.49;98755.84;5003361;28;105610;-68
2023/05/06 05:06:38;;;;;;;4.70;3.70;;;;;;;15.63;90.02;98756.81;5003547;28;102654;-68
2023/05/06 05:09:06;;;;;;;2.60;2.40;;;;;;;15.72;89.64;98757.78;5002194;28;102925;-68
2023/05/06 05:11:38;;;;;;;4.47;4.17;;;;;;;15.84;88.26;98756.63;4980564;28;106144;-70
2023/05/06 05:14:06;;;;;;;5.27;4.80;;;;;;;15.61;89.90;98754.28;4989892;28;103159;-69
2023/05/06 05:16:35;;;;;;;4.10;3.67;;;;;;;15.76;90.95;98754.69;4972462;28;103072;-69
2023/05/06 05:19:05;;;;;;;3.63;3.33;;;;;;;15.87;90.17;98756.34;5002294;28;102864;-72
2023/05/06 05:21:36;;;;;;;8.20;4.90;;;;;;;15.80;90.54;98761.44;4988050;28;103296;-72
2023/05/06 05:24:06;;;;;;;3.80;3.50;;;;;;;15.82;90.21;98763.94;4984821;28;106013;-73
2023/05/06 05:26:35;;;;;;;5.13;4.70;;;;;;;15.81;89.82;98763.09;4985384;28;102788;-73
2023/05/06 05:29:03;;;;;;;4.23;3.83;;;;;;;15.92;90.17;98764.75;4993644;28;102811;-69
2023/05/06 05:31:32;;;;;;;5.40;4.78;;;;;;;16.03;89.87;98777.91;4981293;28;103333;-69
2023/05/06 05:34:00;;;;;;;4.90;4.40;;;;;;;16.17;88.79;98770.31;5007156;28;104089;-68
2023/05/06 05:36:32;;;;;;;5.30;4.60;;;;;;;16.32;86.75;98775.19;4998089;28;104024;-68
2023/05/06 05:39:03;;;;;;;5.60;4.60;;;;;;;16.43;86.76;98769.69;4971400;28;102969;-69
2023/05/06 05:41:34;;;;;;;3.90;3.40;;;;;;;16.53;86.40;98770.50;5001235;28;103307;-69
2023/05/06 05:44:02;;;;;;;5.50;5.00;;;;;;;16.43;86.90;98778.53;5005063;28;103220;-69
2023/05/06 05:46:30;;;;;;;3.83;3.53;;;;;;;16.49;85.94;98775.28;4990275;28;104330;-69
2023/05/06 05:48:58;;;;;;;5.78;4.32;;;;;;;16.63;85.82;98782.84;4985579;28;102644;-68
2023/05/06 05:51:28;;;;;;;4.40;4.00;;;;;;;16.70;85.32;98783.91;4990858;28;103269;-68
2023/05/06 05:53:59;;;;;;;4.37;3.43;;;;;;;16.52;83.69;98780.31;5000757;28;103241;-68
2023/05/06 05:56:27;;;;;;;4.22;2.70;;;;;;;16.65;83.82;98782.69;4972048;28;102933;-69
2023/05/06 05:58:55;;;;;;;3.45;3.08;;;;;;;16.66;85.49;98782.53;5000437;28;102806;-69
2023/05/06 06:01:24;;;;;;;6.53;3.17;;;;;;;16.78;84.25;98777.88;4997264;28;103352;-68
2023/05/06 06:03:54;;;;;;;2.40;2.20;;;;;;;17.04;82.43;98778.00;5003665;28;103947;-68
2023/05/06 06:06:23;;;;;;;2.30;2.10;;;;;;;17.20;81.78;98786.19;4984294;27;102981;-69
2023/05/06 06:08:52;;;;;;;3.10;1.70;;;;;;;17.44;80.54;98781.09;5001893;28;102655;-68
2023/05/06 06:11:24;;;;;;;2.25;2.03;;;;;;;16.86;79.72;98777.13;4974496;28;105488;-69
2023/05/06 06:13:52;;;;;;;2.05;1.60;;;;;;;17.38;79.96;98784.38;5006997;28;110352;-67
2023/05/06 06:16:19;;;;;;;2.17;1.48;;;;;;;17.46;80.56;98780.97;4994139;28;105284;-68
2023/05/06 06:18:48;;;;;;;2.97;2.28;;;;;;;16.94;81.28;98785.22;5001809;28;105157;-68
2023/05/06 06:21:16;;;;;;;3.50;1.77;;;;;;;17.23;79.24;98791.25;5005555;28;103312;-69
2023/05/06 06:23:44;;;;;;;5.03;2.78;;;;;;;17.00;78.74;98780.13;4997644;28;103288;-69
2023/05/06 06:26:13;;;;;;;2.72;1.80;;;;;;;17.26;80.01;98783.75;5008880;28;102672;-74
2023/05/06 06:28:43;;;;;;;3.40;2.00;;;;;;;17.49;77.98;98786.00;4992612;28;102852;-72
2023/05/06 06:31:11;;;;;;;2.42;2.08;;;;;;;17.41;79.63;98789.41;4979181;28;105982;-73
2023/05/06 06:33:39;;;;;;;2.65;2.17;;;;;;;17.70;79.14;98784.72;5002113;28;103064;-69
2023/05/06 06:36:08;;;;;;;3.55;1.85;;;;;;;17.70;79.55;98795.41;4997028;28;102966;-70
2023/05/06 06:38:37;;;;;;;2.55;1.88;;;;;;;17.36;79.65;98794.38;5003666;28;102779;-71
2023/05/06 06:41:05;;;;;;;3.38;2.25;;;;;;;16.78;80.01;98802.72;4989062;28;114367;-72
2023/05/06 06:43:33;;;;;;;4.07;2.35;;;;;;;16.98;80.18;98803.44;4990533;28;104449;-74
2023/05/06 06:46:08;;;;;;;2.63;2.20;;;;;;;16.58;82.28;98803.78;4975823;28;102759;-73
2023/05/06 06:48:36;;;;;;;7.63;2.70;;;;;;;16.83;82.18;98809.44;5005366;28;103085;-71
2023/05/06 06:51:05;;;;;;;4.70;2.58;;;;;;;16.62;82.16;98802.47;5002506;28;103200;-69
2023/05/06 06:53:33;;;;;;;2.30;2.10;;;;;;;16.60;82.83;98801.81;4998176;28;103041;-70
2023/05/06 06:56:03;;;;;;;5.85;2.50;;;;;;;16.70;83.77;98804.44;4991714;28;102682;-71
2023/05/06 06:58:33;;;;;;;2.60;2.08;;;;;;;17.18;81.83;98802.34;4992056;28;102919;-71
2023/05/06 07:01:00;;;;;;;3.63;2.58;;;;;;;16.78;81.60;98805.38;4989000;28;112939;-70
2023/05/06 07:03:30;;;;;;;2.97;2.17;;;;;;;17.40;79.92;98809.13;5002125;28;103088;-70
2023/05/06 07:05:58;;;;;;;5.45;3.05;;;;;;;17.60;80.24;98807.19;4993935;28;104248;-70
2023/05/06 07:08:26;;;;;;;3.40;2.78;;;;;;;17.41;78.07;98810.78;4971531;28;103991;-70
2023/05/06 07:10:54;;;;;;;3.30;3.00;;;;;;;16.85;79.78;98807.44;4967034;28;112800;-71
2023/05/06 07:13:22;;;;;;;4.65;2.70;;;;;;;17.33;79.11;98816.03;4966359;28;107980;-71
2023/05/06 07:15:50;;;;;;;2.50;2.30;;;;;;;17.41;79.05;98813.44;4985321;28;103399;-70
2023/05/06 07:18:18;;;;;;;3.53;2.17;;;;;;;17.50;78.87;98809.88;4997920;28;103014;-70
2023/05/06 07:20:47;;;;;;;3.22;2.33;;;;;;;17.87;78.86;98823.97;4994882;28;103471;-70
2023/05/06 07:23:18;;;;;;;3.38;2.38;;;;;;;17.74;78.11;98817.34;4998229;28;103124;-70
2023/05/06 07:25:49;;;;;;;3.33;2.55;;;;;;;17.85;78.06;98812.56;4944113;28;102850;-73
2023/05/06 07:28:19;;;;;;;2.95;2.63;;;;;;;18.07;76.98;98813.94;4969457;28;102727;-73
2023/05/06 07:30:57;;;;;;;2.53;2.10;;;;;;;18.38;77.84;98808.97;4971111;28;108043;-72
2023/05/06 07:33:25;;;;;;;2.78;2.47;;;;;;;19.14;74.19;98809.06;4963272;28;104322;-72
2023/05/06 07:35:54;;;;;;;2.90;2.22;;;;;;;18.93;72.36;98815.66;4977063;28;104091;-72
2023/05/06 07:38:23;;;;;;;2.42;2.22;;;;;;;19.23;71.31;98813.44;4971513;28;102989;-70
2023/05/06 07:40:52;;;;;;;2.13;1.50;;;;;;;19.43;70.30;98813.03;4936728;28;103280;-71
2023/05/06 07:43:21;;;;;;;2.72;2.05;;;;;;;18.98;72.84;98816.03;4970099;28;103182;-69
2023/05/06 07:45:49;;;;;;;2.03;1.60;;;;;;;19.01;71.72;98810.34;4948557;28;105168;-69
2023/05/06 07:48:18;;;;;;;3.00;1.70;;;;;;;18.89;71.58;98822.31;4987832;28;103400;-69
2023/05/06 07:50:47;;;;;;;1.73;1.40;;;;;;;18.38;71.79;98827.69;4989096;28;103356;-69
2023/05/06 07:53:16;;;;;;;2.00;1.67;;;;;;;18.10;70.80;98823.47;4970705;28;107105;-70
2023/05/06 07:55:44;;;;;;;2.58;1.83;;;;;;;18.33;72.71;98830.81;4995270;28;102897;-71
2023/05/06 07:58:12;;;;;;;4.13;1.77;;;;;;;18.94;70.34;98819.19;4968202;28;102893;-70
2023/05/06 08:00:40;;;;;;;1.58;1.45;;;;;;;19.59;67.22;98820.28;4981200;28;103957;-71
2023/05/06 08:03:08;;;;;;;2.83;1.70;;;;;;;19.36;68.29;98820.00;4987311;28;103131;-70
2023/05/06 08:05:36;;;;;;;1.88;1.50;;;;;;;19.28;69.10;98822.69;4984090;28;102880;-70
2023/05/06 08:08:05;;;;;;;2.97;1.63;;;;;;;20.11;64.47;98821.66;4981353;28;102795;-70
2023/05/06 08:10:34;;;;;;;2.03;1.33;;;;;;;20.69;62.59;98825.94;4974489;28;103248;-73
2023/05/06 08:13:02;;;;;;;2.90;1.42;;;;;;;21.33;61.73;98825.72;4990435;28;103703;-71
2023/05/06 08:15:31;;;;;;;1.73;1.23;;;;;;;21.64;59.12;98823.03;4973953;28;103336;-72
2023/05/06 08:18:00;;;;;;;1.67;1.58;;;;;;;20.56;58.97;98821.13;4986229;28;102776;-71
2023/05/06 08:20:44;;;;;;;2.45;1.40;;;;;;;21.01;62.21;98827.72;5000776;28;110512;-71
2023/05/06 08:23:12;;;;;;;1.92;1.58;;;;;;;20.27;60.85;98830.75;4974801;28;103765;-71
2023/05/06 08:25:41;;;;;;;1.23;1.02;;;;;;;21.30;60.24;98826.13;4981750;28;102687;-72
2023/05/06 08:28:09;;;;;;;1.75;1.65;;;;;;;20.99;59.39;98827.06;4967775;28;103040;-70
2023/05/06 08:30:37;;;;;;;1.50;1.40;;;;;;;20.33;61.12;98833.56;5001095;28;103410;-74
2023/05/06 08:33:05;;;;;;;1.75;1.50;;;;;;;20.11;63.19;98829.69;4981319;28;103140;-73
2023/05/06 08:35:34;;;;;;;1.85;1.52;;;;;;;20.46;60.58;98825.00;5007701;28;103093;-71
2023/05/06 08:38:02;;;;;;;2.80;1.40;;;;;;;20.94;60.13;98821.38;5007175;28;103070;-72
2023/05/06 08:40:32;;;;;;;1.60;1.50;;;;;;;21.46;57.58;98833.25;5003207;28;103263;-72
2023/05/06 08:43:03;;;;;;;2.83;1.80;;;;;;;20.95;57.12;98823.03;4997569;28;103457;-71
2023/05/06 08:45:35;;;;;;;2.05;1.63;;;;;;;22.83;56.31;98825.94;4995205;28;102870;-71
2023/05/06 08:48:07;;;;;;;2.45;1.23;;;;;;;21.76;53.04;98818.09;4966123;28;103105;-71
2023/05/06 08:50:44;;;;;;;2.33;1.17;;;;;;;21.68;53.14;98819.00;4991141;28;112950;-73
2023/05/06 08:53:14;;;;;;;1.13;1.00;;;;;;;22.30;52.68;98825.09;4986482;28;103068;-74
2023/05/06 08:55:43;;;;;;;1.77;1.40;;;;;;;22.82;50.74;98816.19;5005555;28;102618;-76
2023/05/06 08:58:14;;;;;;;2.08;1.52;;;;;;;22.74;53.91;98822.50;4996480;28;102801;-72
2023/05/06 09:00:43;;;;;;;2.13;1.10;;;;;;;22.96;53.79;98815.38;5000406;28;103630;-72
2023/05/06 09:03:11;;;;;;;1.30;1.20;;;;;;;22.90;49.50;98822.34;5003377;28;105033;-72
2023/05/06 09:05:39;;;;;;;1.98;1.23;;;;;;;23.42;49.27;98816.81;5003340;28;102708;-69
2023/05/06 09:08:07;;;;;;;1.45;1.20;;;;;;;22.50;49.86;98831.66;4988193;28;102961;-72
2023/05/06 09:10:42;;;;;;;1.33;1.20;;;;;;;22.20;53.12;98823.69;5004233;28;110458;-72
2023/05/06 09:13:13;;;;;;;2.22;0.93;;;;;;;22.81;49.37;98817.22;4990253;28;113980;-73
2023/05/06 09:15:42;;;;;;;1.40;1.00;;;;;;;22.74;50.61;98816.25;4981796;28;102668;-72
2023/05/06 09:18:11;;;;;;;1.80;1.27;;;;;;;22.54;50.97;98826.72;5003666;28;102566;-73
2023/05/06 09:20:41;;;;;;;1.40;1.30;;;;;;;23.56;51.75;98818.63;4984295;28;104455;-73
2023/05/06 09:23:11;;;;;;;1.17;0.90;;;;;;;25.00;47.97;98812.84;4982594;28;103144;-73
2023/05/06 09:25:39;;;;;;;2.63;1.15;;;;;;;23.19;48.10;98805.28;5009137;28;102692;-72
2023/05/06 09:28:08;;;;;;;1.65;1.00;;;;;;;23.56;47.54;98813.25;4988755;28;102744;-72
2023/05/06 09:30:40;;;;;;;1.00;0.90;;;;;;;23.38;48.18;98807.41;4984497;28;103832;-72
2023/05/06 09:33:09;;;;;;;2.22;1.00;;;;;;;23.22;48.24;98807.59;5000026;28;103588;-72
2023/05/06 09:35:38;;;;;;;1.75;0.90;;;;;;;22.13;50.41;98806.56;4994033;28;102725;-74
2023/05/06 09:38:08;;;;;;;1.10;1.00;;;;;;;22.96;49.67;98807.28;4998422;28;102913;-73
2023/05/06 09:40:36;;;;;;;2.67;1.10;;;;;;;23.10;48.89;98801.06;4986247;28;105853;-74
2023/05/06 09:43:05;;;;;;;2.28;1.00;;;;;;;22.74;47.78;98805.50;4991773;28;105354;-73
2023/05/06 09:45:33;;;;;;;1.02;0.93;;;;;;;21.79;51.97;98804.28;5005928;28;102681;-73
2023/05/06 09:48:02;;;;;;;1.45;1.00;;;;;;;22.16;51.24;98812.44;5005095;28;103035;-73
2023/05/06 09:50:33;;;;;;;1.67;1.20;;;;;;;22.30;49.29;98803.56;4991146;28;111277;-73
2023/05/06 09:53:04;;;;;;;1.70;1.10;;;;;;;23.11;49.92;98797.31;4986909;28;103316;-76
2023/05/06 09:55:33;;;;;;;1.33;1.23;;;;;;;23.86;46.31;98797.78;5002221;28;102659;-73
2023/05/06 09:58:03;;;;;;;1.10;1.00;;;;;;;24.52;47.65;98803.78;5008396;28;103482;-76
2023/05/06 10:00:31;;;;;;;1.20;1.00;;;;;;;24.84;46.36;98799.66;5001371;28;103120;-70
2023/05/06 10:03:01;;;;;;;0.93;0.88;;;;;;;23.42;46.95;98787.16;4995051;28;103091;-72
2023/05/06 10:05:32;;;;;;;1.98;1.20;;;;;;;22.66;48.94;98792.97;4999987;28;102910;-72
2023/05/06 10:08:03;;;;;;;1.00;0.90;;;;;;;23.78;50.55;98786.28;5005305;28;104541;-72
2023/05/06 10:10:32;;;;;;;1.80;0.90;;;;;;;24.18;47.06;98780.25;4998239;28;105729;-72
2023/05/06 10:13:02;;;;;;;1.20;0.80;;;;;;;24.26;44.95;98777.41;5004171;28;104442;-72
2023/05/06 10:15:32;;;;;;;2.85;1.00;;;;;;;23.24;47.64;98780.50;5006436;28;102609;-74
2023/05/06 10:18:03;;;;;;;3.65;1.00;;;;;;;23.92;46.07;98777.28;5011119;28;103122;-74
2023/05/06 10:20:34;;;;;;;1.30;0.80;;;;;;;25.18;45.08;98776.13;4979331;28;115563;-73
2023/05/06 10:23:09;;;;;;;1.20;0.73;;;;;;;26.15;44.54;98775.78;5001389;28;103194;-74
2023/05/06 10:25:39;;;;;;;2.42;1.10;;;;;;;22.88;47.40;98767.78;5003581;28;103212;-74
2023/05/06 10:28:10;;;;;;;1.52;0.90;;;;;;;23.65;47.39;98762.72;4989636;28;102747;-73
2023/05/06 10:30:58;;;;;;;1.73;0.90;;;;;;;23.52;47.58;98768.00;4989042;28;112276;-75
2023/05/06 10:33:28;;;;;;;2.38;1.00;;;;;;;23.90;47.57;98760.47;5006779;28;103938;-75
2023/05/06 10:36:07;;;;;;;1.30;0.98;;;;;;;25.35;45.42;98755.81;4993657;28;102825;-74
2023/05/06 10:38:40;;;;;;;0.82;0.82;;;;;;;23.42;46.66;98754.81;5001679;28;102680;-73
2023/05/06 10:41:09;;;;;;;2.42;0.98;;;;;;;24.52;45.96;98755.16;4992529;28;103877;-73
2023/05/06 10:43:41;;;;;;;1.52;0.95;;;;;;;24.77;45.98;98753.66;5006930;28;106111;-74
2023/05/06 10:46:10;;;;;;;2.55;1.10;;;;;;;24.30;43.45;98751.72;5007403;28;102700;-76
2023/05/06 10:49:00;;;;;;;2.00;1.10;;;;;;;24.36;46.51;98756.31;4999955;28;102691;-75
2023/05/06 10:51:28;;;;;;;2.47;1.25;;;;;;;23.56;43.91;98756.63;4999270;28;104027;-76
2023/05/06 10:54:01;;;;;;;1.40;0.82;;;;;;;24.27;45.32;98745.84;4970185;28;104473;-75
2023/05/06 10:56:31;;;;;;;1.60;1.20;;;;;;;24.54;42.10;98743.13;5006904;28;102709;-75
2023/05/06 10:59:06;;;;;;;2.35;1.10;;;;;;;24.81;44.29;98732.53;4973556;28;103167;-75
2023/05/06 11:01:35;;;;;;;1.10;1.00;;;;;;;25.76;45.08;98731.41;4986040;28;105583;-75
2023/05/06 11:04:12;;;;;;;1.80;0.80;;;;;;;25.59;41.40;98724.72;4988671;28;103159;-76
2023/05/06 11:06:43;;;;;;;2.03;1.20;;;;;;;25.32;46.40;98731.03;5003734;28;103621;-75
2023/05/06 11:09:17;;;;;;;1.25;1.00;;;;;;;25.46;43.40;98716.50;5009100;28;103135;-75
2023/05/06 11:12:00;;;;;;;1.30;1.20;;;;;;;25.12;44.32;98713.94;5009193;28;107141;-76
2023/05/06 11:14:34;;;;;;;5.00;1.27;;;;;;;25.74;43.84;98713.69;4994856;28;103760;-76
2023/05/06 11:17:03;;;;;;;1.83;1.02;;;;;;;26.25;42.31;98717.47;5005705;28;102711;-76
2023/05/06 11:19:34;;;;;;;1.52;1.27;;;;;;;23.19;47.75;98724.44;4985507;28;102879;-76
2023/05/06 11:22:04;;;;;;;1.77;1.33;;;;;;;23.92;45.98;98726.03;4989129;28;103431;-75
2023/05/06 11:24:38;;;;;;;3.40;1.73;;;;;;;22.76;46.25;98723.53;5005363;28;103271;-75
2023/05/06 11:27:08;;;;;;;1.55;1.40;;;;;;;24.58;45.35;98717.41;4995011;28;102667;-75
2023/05/06 11:29:36;;;;;;;1.10;1.00;;;;;;;23.59;46.39;98715.78;4987284;28;103121;-74
2023/05/06 11:32:05;;;;;;;4.80;1.48;;;;;;;25.06;44.60;98715.59;4973642;28;105894;-76
2023/05/06 11:34:35;;;;;;;2.38;1.20;;;;;;;23.89;46.96;98715.66;5008671;28;103567;-76
2023/05/06 11:37:05;;;;;;;1.58;1.13;;;;;;;24.18;45.13;98710.09;4992071;28;103147;-78